createdAt,value
2023-02-19T00:03:40.350Z,9.80
2023-02-19T00:07:43.193Z,9.90
2023-02-19T00:11:46.230Z,9.90
2023-02-19T00:15:47.930Z,9.90
2023-02-19T00:19:49.570Z,10.00
2023-02-19T00:23:58.433Z,9.90
2023-02-19T00:28:00.028Z,9.80
2023-02-19T00:32:02.479Z,9.70
2023-02-19T00:36:04.949Z,9.70
2023-02-19T00:40:06.867Z,9.70
2023-02-19T00:44:08.545Z,9.70
2023-02-19T00:48:10.153Z,9.70
2023-02-19T00:52:11.735Z,9.70
2023-02-19T00:56:13.404Z,9.70
2023-02-19T01:00:15.093Z,9.70
2023-02-19T01:04:16.718Z,9.70
2023-02-19T01:08:18.691Z,9.80
2023-02-19T01:12:20.272Z,9.80
2023-02-19T01:16:24.723Z,9.80
2023-02-19T01:20:26.667Z,9.90
2023-02-19T01:24:28.277Z,9.90
2023-02-19T01:28:29.866Z,9.90
2023-02-19T01:32:31.406Z,9.90
2023-02-19T01:36:33.799Z,9.80
2023-02-19T01:40:35.490Z,9.90
2023-02-19T01:44:37.103Z,9.90
2023-02-19T01:48:39.232Z,9.90
2023-02-19T01:52:41.308Z,9.90
2023-02-19T01:56:44.127Z,9.90
2023-02-19T02:00:45.737Z,9.90
2023-02-19T02:04:47.797Z,10.00
2023-02-19T02:09:13.721Z,10.00
2023-02-19T02:13:15.332Z,10.00
2023-02-19T02:17:22.357Z,10.00
2023-02-19T02:21:33.196Z,9.90
2023-02-19T02:25:37.872Z,9.70
2023-02-19T02:29:59.060Z,9.60
2023-02-19T02:34:14.642Z,9.60
2023-02-19T02:38:17.072Z,9.60
2023-02-19T02:42:27.498Z,9.50
2023-02-19T02:46:32.665Z,9.50
2023-02-19T02:50:37.010Z,9.50
2023-02-19T02:55:14.108Z,9.50
2023-02-19T02:59:17.539Z,9.50
2023-02-19T03:03:20.825Z,9.50
2023-02-19T03:07:22.431Z,9.60
2023-02-19T03:11:42.787Z,9.60
2023-02-19T03:16:05.946Z,9.60
2023-02-19T03:20:10.487Z,9.60
2023-02-19T03:24:31.364Z,9.60
2023-02-19T03:28:53.400Z,9.60
2023-02-19T03:32:57.967Z,9.60
2023-02-19T03:37:08.335Z,9.60
2023-02-19T03:41:16.206Z,9.60
2023-02-19T03:45:29.096Z,9.60
2023-02-19T03:49:49.453Z,9.60
2023-02-19T03:53:57.337Z,9.60
2023-02-19T03:58:19.761Z,9.60
2023-02-19T04:02:24.439Z,9.60
2023-02-19T04:06:27.339Z,9.60
2023-02-19T06:08:57.963Z,9.10
2023-02-19T06:13:00.146Z,9.00
2023-02-19T06:17:01.932Z,9.00
2023-02-19T06:21:04.576Z,9.00
2023-02-19T06:25:07.935Z,8.90
2023-02-19T06:29:09.529Z,8.90
2023-02-19T06:33:11.265Z,8.90
2023-02-19T06:37:12.953Z,8.90
2023-02-19T06:41:14.744Z,9.00
2023-02-19T06:45:19.298Z,9.00
2023-02-19T06:49:22.553Z,9.00
2023-02-19T06:53:24.218Z,9.00
2023-02-19T06:57:25.762Z,9.00
2023-02-19T07:01:27.916Z,9.00
2023-02-19T07:05:29.534Z,9.00
2023-02-19T07:09:31.401Z,8.90
2023-02-19T07:13:33.271Z,8.90
2023-02-19T07:17:35.192Z,9.00
2023-02-19T07:21:37.943Z,8.90
2023-02-19T07:25:39.754Z,8.90
2023-02-19T07:29:41.393Z,9.00
2023-02-19T07:33:46.570Z,9.10
2023-02-19T07:37:48.161Z,9.10
2023-02-19T07:41:49.730Z,9.20
2023-02-19T07:45:51.728Z,9.10
2023-02-19T07:49:56.798Z,9.10
2023-02-19T07:53:58.462Z,9.10
2023-02-19T07:58:14.959Z,9.10
2023-02-19T08:02:35.841Z,9.00
2023-02-19T08:06:37.428Z,9.00
2023-02-19T08:10:58.037Z,9.10
2023-02-19T08:14:59.625Z,9.10
2023-02-19T08:19:01.166Z,9.10
2023-02-19T08:23:02.812Z,9.10
2023-02-19T08:27:04.384Z,9.10
2023-02-19T08:31:07.098Z,9.10
2023-02-19T08:35:08.710Z,9.10
2023-02-19T08:39:10.316Z,9.10
2023-02-19T08:43:12.886Z,9.20
2023-02-19T08:47:14.982Z,9.10
2023-02-19T08:51:16.669Z,9.10
2023-02-19T08:55:18.300Z,9.10
2023-02-19T08:59:20.663Z,9.10
2023-02-19T09:03:22.429Z,9.20
2023-02-19T09:07:24.086Z,9.20
2023-02-19T09:11:25.686Z,9.30
2023-02-19T09:15:29.483Z,9.30
2023-02-19T09:19:32.792Z,9.40
2023-02-19T09:23:34.948Z,9.40
2023-02-19T09:27:36.669Z,9.40
2023-02-19T09:31:38.497Z,9.50
2023-02-19T09:35:40.781Z,9.60
2023-02-19T09:39:42.359Z,9.50
2023-02-19T09:43:43.994Z,9.70
2023-02-19T09:47:46.043Z,9.70
2023-02-19T09:51:51.124Z,9.90
2023-02-19T09:55:53.177Z,9.60
2023-02-19T10:00:14.106Z,9.70
2023-02-19T10:04:15.649Z,9.50
2023-02-19T10:08:18.767Z,9.40
2023-02-19T10:12:24.694Z,9.60
2023-02-19T10:16:28.194Z,9.50
2023-02-19T10:20:29.843Z,9.40
2023-02-19T10:24:32.112Z,9.40
2023-02-19T10:28:34.929Z,9.50
2023-02-19T10:32:36.688Z,9.50
2023-02-19T10:36:42.389Z,9.60
2023-02-19T10:40:45.289Z,9.60
2023-02-19T10:44:53.138Z,9.40
2023-02-19T10:48:56.861Z,9.30
2023-02-19T10:52:59.839Z,9.40
2023-02-19T10:57:20.981Z,9.30
2023-02-19T11:01:23.575Z,9.20
2023-02-19T11:05:25.297Z,9.30
2023-02-19T11:09:53.652Z,9.20
2023-02-19T11:13:56.574Z,9.30
2023-02-19T11:18:08.008Z,9.20
2023-02-19T11:22:28.678Z,9.10
2023-02-19T11:26:37.991Z,9.10
2023-02-19T11:30:41.029Z,9.00
2023-02-19T11:34:42.683Z,9.00
2023-02-19T11:38:44.348Z,9.00
2023-02-19T11:42:53.586Z,8.90
2023-02-19T11:46:55.181Z,9.00
2023-02-19T11:51:03.105Z,9.20
2023-02-19T11:55:07.668Z,9.30
2023-02-19T11:59:35.597Z,9.50
2023-02-19T12:03:43.010Z,9.60
2023-02-19T12:07:44.570Z,9.60
2023-02-19T12:12:00.202Z,9.60
2023-02-19T12:16:10.702Z,9.60
2023-02-19T12:20:18.908Z,9.40
2023-02-19T12:24:32.684Z,9.50
2023-02-19T12:28:52.712Z,9.50
2023-02-19T12:33:13.253Z,9.40
2023-02-19T12:37:28.112Z,9.40
2023-02-19T12:41:36.664Z,9.50
2023-02-19T12:45:59.388Z,9.40
2023-02-19T12:50:13.470Z,9.20
2023-02-19T12:54:34.692Z,9.30
2023-02-19T12:58:55.119Z,9.20
2023-02-19T13:03:20.873Z,9.50
2023-02-19T13:07:36.728Z,9.60
2023-02-19T13:11:42.603Z,9.60
2023-02-19T13:15:48.341Z,9.80
2023-02-19T13:19:52.013Z,9.80
2023-02-19T13:23:59.746Z,9.80
2023-02-19T13:28:06.456Z,9.60
2023-02-19T13:32:11.312Z,9.50
2023-02-19T13:36:15.284Z,9.50
2023-02-19T13:40:30.128Z,9.50
2023-02-19T13:44:32.895Z,9.50
2023-02-19T13:48:35.733Z,9.40
2023-02-19T13:52:39.297Z,9.40
2023-02-19T13:56:41.119Z,9.30
2023-02-19T14:00:49.880Z,9.30
2023-02-19T14:04:56.899Z,9.20
2023-02-19T14:09:00.239Z,9.40
2023-02-19T14:13:01.841Z,9.30
2023-02-19T14:17:09.869Z,9.50
2023-02-19T14:21:16.727Z,9.60
2023-02-19T14:25:30.582Z,9.50
2023-02-19T14:29:32.199Z,9.50
2023-02-19T14:33:35.654Z,9.40
2023-02-19T14:37:37.226Z,9.40
2023-02-19T14:41:40.269Z,9.30
2023-02-19T14:45:43.294Z,9.30
2023-02-19T14:49:55.467Z,9.40
2023-02-19T14:53:58.732Z,9.30
2023-02-19T14:58:11.974Z,9.30
2023-02-19T15:02:15.969Z,9.30
2023-02-19T15:06:19.494Z,9.30
2023-02-19T15:10:21.959Z,9.20
2023-02-19T15:14:24.584Z,9.30
2023-02-19T15:18:26.989Z,9.40
2023-02-19T15:22:31.962Z,9.30
2023-02-19T15:26:38.402Z,9.30
2023-02-19T15:30:40.013Z,9.20
2023-02-19T15:34:42.054Z,9.30
2023-02-19T15:38:44.520Z,9.20
2023-02-19T15:42:47.211Z,9.20
2023-02-19T15:46:49.201Z,9.20
2023-02-19T15:50:57.490Z,9.20
2023-02-19T15:55:18.166Z,9.10
2023-02-19T15:59:42.991Z,8.90
2023-02-19T16:03:44.778Z,8.90
2023-02-19T16:07:46.374Z,8.80
2023-02-19T16:11:50.409Z,8.80
2023-02-19T16:16:03.964Z,8.70
2023-02-19T16:20:05.838Z,8.70
2023-02-19T16:24:16.377Z,8.70
2023-02-19T16:28:22.266Z,8.70
2023-02-19T16:32:23.949Z,8.80
2023-02-19T16:36:41.780Z,8.80
2023-02-19T16:40:50.758Z,8.80
2023-02-19T16:44:55.847Z,8.70
2023-02-19T16:48:57.621Z,8.40
2023-02-19T16:53:03.199Z,8.50
2023-02-19T16:57:04.836Z,8.40
2023-02-19T17:01:07.193Z,8.20
2023-02-19T17:05:08.810Z,8.20
2023-02-19T17:09:10.716Z,8.20
2023-02-19T17:13:12.405Z,8.10
2023-02-19T17:17:14.043Z,8.20
2023-02-19T17:21:22.953Z,8.20
2023-02-19T17:25:24.516Z,8.10
2023-02-19T17:29:28.416Z,8.10
2023-02-19T17:33:29.994Z,8.10
2023-02-19T17:37:31.545Z,8.10
2023-02-19T17:41:33.281Z,8.10
2023-02-19T17:45:34.970Z,8.10
2023-02-19T17:49:36.607Z,8.10
2023-02-19T17:53:38.295Z,8.10
2023-02-19T17:57:40.691Z,8.10
2023-02-19T18:01:42.285Z,8.10
2023-02-19T18:05:43.871Z,8.10
2023-02-19T18:09:45.503Z,8.00
2023-02-19T18:13:48.100Z,8.00
2023-02-19T18:17:50.090Z,8.00
2023-02-19T18:21:51.833Z,8.00
2023-02-19T18:25:53.412Z,8.00
2023-02-19T18:29:55.559Z,7.90
2023-02-19T18:33:57.170Z,7.90
2023-02-19T18:37:58.821Z,7.80
2023-02-19T18:42:01.854Z,7.80
2023-02-19T18:46:03.520Z,7.70
2023-02-19T18:50:08.216Z,7.70
2023-02-19T18:54:10.468Z,7.70
2023-02-19T18:58:12.040Z,7.70
2023-02-19T19:02:14.807Z,7.70
2023-02-19T19:06:16.437Z,7.60
2023-02-19T19:10:18.385Z,7.70
2023-02-19T19:14:19.965Z,7.60
2023-02-19T19:18:21.678Z,7.70
2023-02-19T19:22:25.042Z,7.70
2023-02-19T19:26:26.746Z,7.60
2023-02-19T19:30:28.532Z,7.70
2023-02-19T19:34:30.163Z,7.60
2023-02-19T19:38:31.732Z,7.60
2023-02-19T19:42:33.396Z,7.50
2023-02-19T19:46:35.171Z,7.60
2023-02-19T19:50:36.842Z,7.50
2023-02-19T19:54:40.362Z,7.50
2023-02-19T19:58:41.989Z,7.50
2023-02-19T20:02:47.056Z,7.60
2023-02-19T20:06:48.790Z,7.60
2023-02-19T20:10:50.395Z,7.60
2023-02-19T20:14:52.080Z,7.60
2023-02-19T20:18:53.894Z,7.70
2023-02-19T20:22:55.618Z,7.60
2023-02-19T20:26:58.563Z,7.60
2023-02-19T20:31:00.561Z,7.60
2023-02-19T20:35:02.547Z,7.60
2023-02-19T20:39:04.346Z,7.60
2023-02-19T20:43:05.967Z,7.50
2023-02-19T20:47:07.566Z,7.50
2023-02-19T20:51:09.303Z,7.40
2023-02-19T20:55:11.239Z,7.50
2023-02-19T20:59:13.714Z,7.50
2023-02-19T21:03:15.623Z,7.30
2023-02-19T21:07:17.368Z,7.40
2023-02-19T21:11:19.144Z,7.30
2023-02-19T21:15:20.844Z,7.40
2023-02-19T21:19:22.747Z,7.40
2023-02-19T21:23:24.401Z,7.40
2023-02-19T21:27:26.016Z,7.40
2023-02-19T21:31:35.522Z,7.40
2023-02-19T21:35:37.212Z,7.30
2023-02-19T21:39:39.002Z,7.30
2023-02-19T21:43:40.629Z,7.40
2023-02-19T21:47:42.729Z,7.40
2023-02-19T21:51:44.823Z,7.30
2023-02-19T21:55:57.760Z,7.30
2023-02-19T22:00:00.317Z,7.40
2023-02-19T22:04:03.694Z,7.20
2023-02-19T22:08:05.501Z,7.10
2023-02-19T22:12:07.608Z,7.20
2023-02-19T22:16:09.603Z,7.20
2023-02-19T22:20:12.022Z,7.20
2023-02-19T22:24:14.851Z,7.10
2023-02-19T22:28:16.522Z,7.00
2023-02-19T22:32:18.236Z,7.00
2023-02-19T22:36:21.506Z,6.90
2023-02-19T22:40:23.054Z,6.70
2023-02-19T22:44:24.740Z,6.70
2023-02-19T22:48:30.033Z,6.60
2023-02-19T22:52:34.971Z,6.50
2023-02-19T22:56:36.541Z,6.50
2023-02-19T23:00:38.207Z,6.50
2023-02-19T23:04:39.802Z,6.50
2023-02-19T23:08:42.863Z,6.20
2023-02-19T23:12:44.528Z,6.10
2023-02-19T23:16:46.256Z,6.20
2023-02-19T23:20:47.940Z,6.10
2023-02-19T23:24:49.561Z,6.10
2023-02-19T23:28:51.263Z,6.00
2023-02-19T23:32:52.942Z,6.00
2023-02-19T23:36:55.335Z,5.80
2023-02-19T23:40:56.940Z,5.80
2023-02-19T23:44:58.533Z,5.80
2023-02-19T23:49:00.098Z,5.80
2023-02-19T23:53:01.786Z,5.80
2023-02-19T23:57:03.424Z,5.70
